sensor_id;sensor_type;location;lat;lon;timestamp;temperature;humidity
14485;DHT22;7328;50.812;4.422;2022-09-09T00:09:47;-40.00;99.90
14485;DHT22;7328;50.812;4.422;2022-09-09T00:12:34;-40.00;99.90
14485;DHT22;7328;50.812;4.422;2022-09-09T00:15:13;-40.00;99.90
14485;DHT22;7328;50.812;4.422;2022-09-09T00:18:03;-40.00;99.90
14485;DHT22;7328;50.812;4.422;2022-09-09T00:23:25;-40.00;99.90
14485;DHT22;7328;50.812;4.422;2022-09-09T00:28:44;-40.00;99.90
14485;DHT22;7328;50.812;4.422;2022-09-09T00:31:18;-40.00;99.90
14485;DHT22;7328;50.812;4.422;2022-09-09T00:33:46;-40.00;99.90
14485;DHT22;7328;50.812;4.422;2022-09-09T00:36:16;-40.00;99.90
14485;DHT22;7328;50.812;4.422;2022-09-09T00:38:52;-40.00;99.90
14485;DHT22;7328;50.812;4.422;2022-09-09T00:47:07;-40.00;99.90
14485;DHT22;7328;50.812;4.422;2022-09-09T00:57:34;-40.00;99.90
14485;DHT22;7328;50.812;4.422;2022-09-09T01:00:22;-40.00;99.90
14485;DHT22;7328;50.812;4.422;2022-09-09T01:07:51;-40.00;99.90
14485;DHT22;7328;50.812;4.422;2022-09-09T01:12:58;-40.00;99.90
14485;DHT22;7328;50.812;4.422;2022-09-09T01:15:30;-40.00;99.90
14485;DHT22;7328;50.812;4.422;2022-09-09T01:18:09;-40.00;99.90
14485;DHT22;7328;50.812;4.422;2022-09-09T01:21:01;-40.00;99.90
14485;DHT22;7328;50.812;4.422;2022-09-09T01:26:22;-40.00;99.90
14485;DHT22;7328;50.812;4.422;2022-09-09T01:28:51;-40.00;99.90
14485;DHT22;7328;50.812;4.422;2022-09-09T01:31:22;-40.00;99.90
14485;DHT22;7328;50.812;4.422;2022-09-09T01:33:48;-40.00;99.90
14485;DHT22;7328;50.812;4.422;2022-09-09T01:39:11;-40.00;99.90
14485;DHT22;7328;50.812;4.422;2022-09-09T01:41:38;-40.00;99.90
14485;DHT22;7328;50.812;4.422;2022-09-09T01:44:04;-40.00;99.90
14485;DHT22;7328;50.812;4.422;2022-09-09T01:46:30;-40.00;99.90
14485;DHT22;7328;50.812;4.422;2022-09-09T01:48:57;-40.00;99.90
14485;DHT22;7328;50.812;4.422;2022-09-09T01:51:24;-40.00;99.90
14485;DHT22;7328;50.812;4.422;2022-09-09T01:53:50;-40.00;99.90
14485;DHT22;7328;50.812;4.422;2022-09-09T02:01:56;-40.00;99.90
14485;DHT22;7328;50.812;4.422;2022-09-09T02:04:49;-40.00;99.90
14485;DHT22;7328;50.812;4.422;2022-09-09T02:09:52;-40.00;99.90
14485;DHT22;7328;50.812;4.422;2022-09-09T02:12:23;-40.00;99.90
14485;DHT22;7328;50.812;4.422;2022-09-09T02:14:56;-40.00;99.90
14485;DHT22;7328;50.812;4.422;2022-09-09T02:17:30;-40.00;99.90
14485;DHT22;7328;50.812;4.422;2022-09-09T02:20:12;-40.00;99.90
14485;DHT22;7328;50.812;4.422;2022-09-09T02:22:41;-40.00;99.90
14485;DHT22;7328;50.812;4.422;2022-09-09T02:25:11;-40.00;99.90
14485;DHT22;7328;50.812;4.422;2022-09-09T02:27:40;-40.00;99.90
14485;DHT22;7328;50.812;4.422;2022-09-09T02:30:07;-40.00;99.90
14485;DHT22;7328;50.812;4.422;2022-09-09T02:32:35;-40.00;99.90
14485;DHT22;7328;50.812;4.422;2022-09-09T02:35:06;-40.00;99.90
14485;DHT22;7328;50.812;4.422;2022-09-09T02:37:36;-40.00;99.90
14485;DHT22;7328;50.812;4.422;2022-09-09T02:40:04;-40.00;99.90
14485;DHT22;7328;50.812;4.422;2022-09-09T02:42:31;-40.00;99.90
14485;DHT22;7328;50.812;4.422;2022-09-09T02:44:56;-40.00;99.90
14485;DHT22;7328;50.812;4.422;2022-09-09T02:47:38;-40.00;99.90
14485;DHT22;7328;50.812;4.422;2022-09-09T02:50:27;-40.00;99.90
14485;DHT22;7328;50.812;4.422;2022-09-09T02:55:33;-40.00;99.90
14485;DHT22;7328;50.812;4.422;2022-09-09T02:58:04;-40.00;99.90
14485;DHT22;7328;50.812;4.422;2022-09-09T03:00:31;-40.00;99.90
14485;DHT22;7328;50.812;4.422;2022-09-09T03:02:57;-40.00;99.90
14485;DHT22;7328;50.812;4.422;2022-09-09T03:05:23;-40.00;99.90
14485;DHT22;7328;50.812;4.422;2022-09-09T03:07:49;-40.00;99.90
14485;DHT22;7328;50.812;4.422;2022-09-09T03:10:16;-40.00;99.90
14485;DHT22;7328;50.812;4.422;2022-09-09T03:12:43;-40.00;99.90
14485;DHT22;7328;50.812;4.422;2022-09-09T03:15:09;-40.00;99.90
14485;DHT22;7328;50.812;4.422;2022-09-09T03:17:35;-40.00;99.90
14485;DHT22;7328;50.812;4.422;2022-09-09T03:20:03;-40.00;99.90
14485;DHT22;7328;50.812;4.422;2022-09-09T03:22:29;-40.00;99.90
14485;DHT22;7328;50.812;4.422;2022-09-09T03:24:55;-40.00;99.90
14485;DHT22;7328;50.812;4.422;2022-09-09T03:27:20;-40.00;99.90
14485;DHT22;7328;50.812;4.422;2022-09-09T03:29:46;-40.00;99.90
14485;DHT22;7328;50.812;4.422;2022-09-09T03:32:12;-40.00;99.90
14485;DHT22;7328;50.812;4.422;2022-09-09T03:34:38;-40.00;99.90
14485;DHT22;7328;50.812;4.422;2022-09-09T03:37:07;-40.00;99.90
14485;DHT22;7328;50.812;4.422;2022-09-09T03:39:33;-40.00;99.90
14485;DHT22;7328;50.812;4.422;2022-09-09T03:41:59;-40.00;99.90
14485;DHT22;7328;50.812;4.422;2022-09-09T03:44:25;-40.00;99.90
14485;DHT22;7328;50.812;4.422;2022-09-09T03:46:50;-40.00;99.90
14485;DHT22;7328;50.812;4.422;2022-09-09T03:49:16;-40.00;99.90
14485;DHT22;7328;50.812;4.422;2022-09-09T03:51:42;-40.00;99.90
14485;DHT22;7328;50.812;4.422;2022-09-09T03:54:08;-40.00;99.90
14485;DHT22;7328;50.812;4.422;2022-09-09T03:56:36;-40.00;99.90
14485;DHT22;7328;50.812;4.422;2022-09-09T03:59:02;-40.00;99.90
14485;DHT22;7328;50.812;4.422;2022-09-09T04:01:28;-40.00;99.90
14485;DHT22;7328;50.812;4.422;2022-09-09T04:03:54;-40.00;99.90
14485;DHT22;7328;50.812;4.422;2022-09-09T04:06:24;-40.00;99.90
14485;DHT22;7328;50.812;4.422;2022-09-09T04:08:50;-40.00;99.90
14485;DHT22;7328;50.812;4.422;2022-09-09T04:11:17;-40.00;99.90
14485;DHT22;7328;50.812;4.422;2022-09-09T04:13:44;-40.00;99.90
14485;DHT22;7328;50.812;4.422;2022-09-09T04:16:11;-40.00;99.90
14485;DHT22;7328;50.812;4.422;2022-09-09T04:18:38;-40.00;99.90
14485;DHT22;7328;50.812;4.422;2022-09-09T04:21:04;-40.00;99.90
14485;DHT22;7328;50.812;4.422;2022-09-09T04:23:32;-40.00;99.90
14485;DHT22;7328;50.812;4.422;2022-09-09T04:26:00;-40.00;99.90
14485;DHT22;7328;50.812;4.422;2022-09-09T04:28:29;-40.00;99.90
14485;DHT22;7328;50.812;4.422;2022-09-09T04:30:55;-40.00;99.90
14485;DHT22;7328;50.812;4.422;2022-09-09T04:33:23;-40.00;99.90
14485;DHT22;7328;50.812;4.422;2022-09-09T04:35:52;-40.00;99.90
14485;DHT22;7328;50.812;4.422;2022-09-09T04:38:19;-40.00;99.90
14485;DHT22;7328;50.812;4.422;2022-09-09T04:40:50;-40.00;99.90
14485;DHT22;7328;50.812;4.422;2022-09-09T04:43:17;-40.00;99.90
14485;DHT22;7328;50.812;4.422;2022-09-09T04:45:47;-40.00;99.90
14485;DHT22;7328;50.812;4.422;2022-09-09T04:48:13;-40.00;99.90
14485;DHT22;7328;50.812;4.422;2022-09-09T04:50:39;-40.00;99.90
14485;DHT22;7328;50.812;4.422;2022-09-09T04:53:06;-39.70;99.90
14485;DHT22;7328;50.812;4.422;2022-09-09T04:55:32;-40.00;99.90
14485;DHT22;7328;50.812;4.422;2022-09-09T04:58:04;-40.00;99.90
14485;DHT22;7328;50.812;4.422;2022-09-09T05:00:30;-40.00;99.90
14485;DHT22;7328;50.812;4.422;2022-09-09T05:02:56;-40.00;99.90
14485;DHT22;7328;50.812;4.422;2022-09-09T05:05:22;-40.00;99.90
14485;DHT22;7328;50.812;4.422;2022-09-09T05:07:47;-40.00;99.90
14485;DHT22;7328;50.812;4.422;2022-09-09T05:10:14;-40.00;99.90
14485;DHT22;7328;50.812;4.422;2022-09-09T05:12:42;-40.00;99.90
14485;DHT22;7328;50.812;4.422;2022-09-09T05:15:08;-40.00;99.90
14485;DHT22;7328;50.812;4.422;2022-09-09T05:17:35;-40.00;99.90
14485;DHT22;7328;50.812;4.422;2022-09-09T05:20:01;-40.00;99.90
14485;DHT22;7328;50.812;4.422;2022-09-09T05:22:28;-40.00;99.90
14485;DHT22;7328;50.812;4.422;2022-09-09T05:24:54;-40.00;99.90
14485;DHT22;7328;50.812;4.422;2022-09-09T05:27:19;-40.00;99.90
14485;DHT22;7328;50.812;4.422;2022-09-09T05:29:46;-40.00;99.90
14485;DHT22;7328;50.812;4.422;2022-09-09T05:32:12;-40.00;99.90
14485;DHT22;7328;50.812;4.422;2022-09-09T05:34:39;-40.00;99.90
14485;DHT22;7328;50.812;4.422;2022-09-09T05:37:05;-40.00;99.90
14485;DHT22;7328;50.812;4.422;2022-09-09T05:39:33;-40.00;99.90
14485;DHT22;7328;50.812;4.422;2022-09-09T05:41:59;-40.00;99.90
14485;DHT22;7328;50.812;4.422;2022-09-09T05:44:25;-40.00;99.90
14485;DHT22;7328;50.812;4.422;2022-09-09T05:46:53;-40.00;99.90
14485;DHT22;7328;50.812;4.422;2022-09-09T05:49:20;-40.00;99.90
14485;DHT22;7328;50.812;4.422;2022-09-09T05:51:46;-40.00;99.90
14485;DHT22;7328;50.812;4.422;2022-09-09T05:54:13;-40.00;99.90
14485;DHT22;7328;50.812;4.422;2022-09-09T05:56:41;-40.00;99.90
14485;DHT22;7328;50.812;4.422;2022-09-09T05:59:07;-40.00;99.90
14485;DHT22;7328;50.812;4.422;2022-09-09T06:01:35;-40.00;99.90
14485;DHT22;7328;50.812;4.422;2022-09-09T06:04:02;-39.60;99.90
14485;DHT22;7328;50.812;4.422;2022-09-09T06:06:34;-39.80;99.90
14485;DHT22;7328;50.812;4.422;2022-09-09T06:09:07;-40.00;99.90
14485;DHT22;7328;50.812;4.422;2022-09-09T06:11:36;-40.00;99.90
14485;DHT22;7328;50.812;4.422;2022-09-09T06:14:03;-40.00;99.90
14485;DHT22;7328;50.812;4.422;2022-09-09T06:16:30;-40.00;99.90
14485;DHT22;7328;50.812;4.422;2022-09-09T06:18:58;-40.00;99.90
14485;DHT22;7328;50.812;4.422;2022-09-09T06:21:35;-40.00;99.90
14485;DHT22;7328;50.812;4.422;2022-09-09T06:24:05;-38.80;99.90
14485;DHT22;7328;50.812;4.422;2022-09-09T06:26:40;-40.00;99.90
14485;DHT22;7328;50.812;4.422;2022-09-09T06:29:07;-40.00;99.90
14485;DHT22;7328;50.812;4.422;2022-09-09T06:31:34;-40.00;99.90
14485;DHT22;7328;50.812;4.422;2022-09-09T06:34:04;-40.00;99.90
14485;DHT22;7328;50.812;4.422;2022-09-09T06:36:33;-40.00;99.90
14485;DHT22;7328;50.812;4.422;2022-09-09T06:38:59;-40.00;99.90
14485;DHT22;7328;50.812;4.422;2022-09-09T06:41:27;-40.00;99.90
14485;DHT22;7328;50.812;4.422;2022-09-09T06:43:53;-40.00;99.90
14485;DHT22;7328;50.812;4.422;2022-09-09T06:46:26;-40.00;99.90
14485;DHT22;7328;50.812;4.422;2022-09-09T06:48:57;-38.30;99.90
14485;DHT22;7328;50.812;4.422;2022-09-09T06:51:30;-40.00;99.90
14485;DHT22;7328;50.812;4.422;2022-09-09T06:53:58;-40.00;99.90
14485;DHT22;7328;50.812;4.422;2022-09-09T06:56:26;-40.00;99.90
14485;DHT22;7328;50.812;4.422;2022-09-09T06:58:54;-40.00;99.90
14485;DHT22;7328;50.812;4.422;2022-09-09T07:01:29;-40.00;99.90
14485;DHT22;7328;50.812;4.422;2022-09-09T07:03:57;-40.00;99.90
14485;DHT22;7328;50.812;4.422;2022-09-09T07:06:29;-40.00;99.90
14485;DHT22;7328;50.812;4.422;2022-09-09T07:08:57;-40.00;99.90
14485;DHT22;7328;50.812;4.422;2022-09-09T07:11:30;-40.00;99.90
14485;DHT22;7328;50.812;4.422;2022-09-09T07:13:57;-40.00;99.90
14485;DHT22;7328;50.812;4.422;2022-09-09T07:16:24;-40.00;99.90
14485;DHT22;7328;50.812;4.422;2022-09-09T07:18:51;-40.00;99.90
14485;DHT22;7328;50.812;4.422;2022-09-09T07:21:18;-40.00;99.90
14485;DHT22;7328;50.812;4.422;2022-09-09T07:23:46;-40.00;99.90
14485;DHT22;7328;50.812;4.422;2022-09-09T07:26:16;-40.00;99.90
14485;DHT22;7328;50.812;4.422;2022-09-09T07:28:43;-40.00;99.90
14485;DHT22;7328;50.812;4.422;2022-09-09T07:31:21;-40.00;99.90
14485;DHT22;7328;50.812;4.422;2022-09-09T07:33:48;-40.00;99.90
14485;DHT22;7328;50.812;4.422;2022-09-09T07:36:14;-39.50;99.90
14485;DHT22;7328;50.812;4.422;2022-09-09T07:38:42;-40.00;99.90
14485;DHT22;7328;50.812;4.422;2022-09-09T07:41:11;-40.00;99.90
14485;DHT22;7328;50.812;4.422;2022-09-09T07:43:39;-40.00;99.90
14485;DHT22;7328;50.812;4.422;2022-09-09T07:46:05;-40.00;99.90
14485;DHT22;7328;50.812;4.422;2022-09-09T07:48:32;-40.00;99.90
14485;DHT22;7328;50.812;4.422;2022-09-09T07:51:11;-40.00;99.90
14485;DHT22;7328;50.812;4.422;2022-09-09T07:53:40;-40.00;99.90
14485;DHT22;7328;50.812;4.422;2022-09-09T07:56:11;-40.00;99.90
14485;DHT22;7328;50.812;4.422;2022-09-09T07:58:39;-34.60;99.90
14485;DHT22;7328;50.812;4.422;2022-09-09T08:01:16;-38.00;99.90
14485;DHT22;7328;50.812;4.422;2022-09-09T08:03:46;-36.30;99.90
14485;DHT22;7328;50.812;4.422;2022-09-09T08:06:13;-40.00;99.90
14485;DHT22;7328;50.812;4.422;2022-09-09T08:08:40;-39.60;99.90
14485;DHT22;7328;50.812;4.422;2022-09-09T08:11:11;-37.40;99.90
14485;DHT22;7328;50.812;4.422;2022-09-09T08:13:37;-40.00;99.90
14485;DHT22;7328;50.812;4.422;2022-09-09T08:16:06;-40.00;99.90
14485;DHT22;7328;50.812;4.422;2022-09-09T08:18:33;-38.70;99.90
14485;DHT22;7328;50.812;4.422;2022-09-09T08:21:15;-40.00;99.90
14485;DHT22;7328;50.812;4.422;2022-09-09T08:23:44;-40.00;99.90
14485;DHT22;7328;50.812;4.422;2022-09-09T08:26:19;-40.00;99.90
14485;DHT22;7328;50.812;4.422;2022-09-09T08:28:53;-40.00;99.90
14485;DHT22;7328;50.812;4.422;2022-09-09T08:31:21;-40.00;99.90
14485;DHT22;7328;50.812;4.422;2022-09-09T08:33:47;-40.00;99.90
14485;DHT22;7328;50.812;4.422;2022-09-09T08:36:18;-40.00;99.90
14485;DHT22;7328;50.812;4.422;2022-09-09T08:38:49;-40.00;99.90
14485;DHT22;7328;50.812;4.422;2022-09-09T08:50:13;-40.00;99.90
14485;DHT22;7328;50.812;4.422;2022-09-09T08:57:54;-33.70;99.90
14485;DHT22;7328;50.812;4.422;2022-09-09T09:00:22;-37.60;99.90
14485;DHT22;7328;50.812;4.422;2022-09-09T09:05:47;-40.00;99.90
14485;DHT22;7328;50.812;4.422;2022-09-09T09:10:51;-39.20;99.90
14485;DHT22;7328;50.812;4.422;2022-09-09T09:13:20;-39.40;99.90
14485;DHT22;7328;50.812;4.422;2022-09-09T09:15:58;-37.20;99.90
14485;DHT22;7328;50.812;4.422;2022-09-09T09:18:26;-36.30;99.90
14485;DHT22;7328;50.812;4.422;2022-09-09T09:21:02;-40.00;99.90
14485;DHT22;7328;50.812;4.422;2022-09-09T09:23:39;-40.00;99.90
14485;DHT22;7328;50.812;4.422;2022-09-09T09:26:09;-37.20;99.90
14485;DHT22;7328;50.812;4.422;2022-09-09T09:28:36;-38.90;99.90
14485;DHT22;7328;50.812;4.422;2022-09-09T09:31:08;-36.50;99.90
14485;DHT22;7328;50.812;4.422;2022-09-09T09:36:07;-31.50;99.90
14485;DHT22;7328;50.812;4.422;2022-09-09T09:38:34;-34.40;99.90
14485;DHT22;7328;50.812;4.422;2022-09-09T09:41:00;-32.10;99.90
14485;DHT22;7328;50.812;4.422;2022-09-09T09:43:28;-33.00;99.90
14485;DHT22;7328;50.812;4.422;2022-09-09T09:45:55;-35.00;99.90
14485;DHT22;7328;50.812;4.422;2022-09-09T09:48:23;-30.90;99.90
14485;DHT22;7328;50.812;4.422;2022-09-09T09:50:57;-29.00;99.90
14485;DHT22;7328;50.812;4.422;2022-09-09T09:53:29;-32.10;99.90
14485;DHT22;7328;50.812;4.422;2022-09-09T09:56:06;-37.80;99.90
14485;DHT22;7328;50.812;4.422;2022-09-09T09:58:48;-40.00;99.90
14485;DHT22;7328;50.812;4.422;2022-09-09T10:01:31;-37.60;99.90
14485;DHT22;7328;50.812;4.422;2022-09-09T10:04:20;-36.10;99.90
14485;DHT22;7328;50.812;4.422;2022-09-09T10:06:49;-37.80;99.90
14485;DHT22;7328;50.812;4.422;2022-09-09T10:09:31;-38.60;99.90
14485;DHT22;7328;50.812;4.422;2022-09-09T10:12:23;-37.30;99.90
14485;DHT22;7328;50.812;4.422;2022-09-09T10:15:06;-40.00;99.90
14485;DHT22;7328;50.812;4.422;2022-09-09T10:18:18;-38.00;99.90
14485;DHT22;7328;50.812;4.422;2022-09-09T10:46:01;-40.00;99.90
14485;DHT22;7328;50.812;4.422;2022-09-09T10:56:16;-40.00;99.90
14485;DHT22;7328;50.812;4.422;2022-09-09T11:01:37;-40.00;99.90
14485;DHT22;7328;50.812;4.422;2022-09-09T11:04:13;-40.00;99.90
14485;DHT22;7328;50.812;4.422;2022-09-09T11:06:45;-40.00;99.90
14485;DHT22;7328;50.812;4.422;2022-09-09T11:09:19;-40.00;99.90
14485;DHT22;7328;50.812;4.422;2022-09-09T11:11:54;-40.00;99.90
14485;DHT22;7328;50.812;4.422;2022-09-09T11:17:45;-40.00;99.90
14485;DHT22;7328;50.812;4.422;2022-09-09T11:20:13;-40.00;99.90
14485;DHT22;7328;50.812;4.422;2022-09-09T11:25:20;-40.00;99.90
14485;DHT22;7328;50.812;4.422;2022-09-09T11:42:17;-40.00;99.90
14485;DHT22;7328;50.812;4.422;2022-09-09T11:44:44;-40.00;99.90
14485;DHT22;7328;50.812;4.422;2022-09-09T11:47:36;-40.00;99.90
14485;DHT22;7328;50.812;4.422;2022-09-09T11:50:26;-40.00;99.90
14485;DHT22;7328;50.812;4.422;2022-09-09T11:53:24;-40.00;99.90
14485;DHT22;7328;50.812;4.422;2022-09-09T11:56:11;-40.00;99.90
14485;DHT22;7328;50.812;4.422;2022-09-09T11:58:41;-40.00;99.90
14485;DHT22;7328;50.812;4.422;2022-09-09T12:01:27;-40.00;99.90
14485;DHT22;7328;50.812;4.422;2022-09-09T12:04:25;-40.00;99.90
14485;DHT22;7328;50.812;4.422;2022-09-09T12:07:21;-40.00;99.90
14485;DHT22;7328;50.812;4.422;2022-09-09T12:09:55;-40.00;99.90
14485;DHT22;7328;50.812;4.422;2022-09-09T12:12:23;-40.00;99.90
14485;DHT22;7328;50.812;4.422;2022-09-09T12:17:45;-40.00;99.90
14485;DHT22;7328;50.812;4.422;2022-09-09T12:28:04;-40.00;99.90
14485;DHT22;7328;50.812;4.422;2022-09-09T12:30:48;-40.00;99.90
14485;DHT22;7328;50.812;4.422;2022-09-09T12:33:18;-40.00;99.90
14485;DHT22;7328;50.812;4.422;2022-09-09T12:35:49;-40.00;99.90
14485;DHT22;7328;50.812;4.422;2022-09-09T12:38:32;-40.00;99.90
14485;DHT22;7328;50.812;4.422;2022-09-09T12:40:59;-40.00;99.90
14485;DHT22;7328;50.812;4.422;2022-09-09T12:43:27;-40.00;99.90
14485;DHT22;7328;50.812;4.422;2022-09-09T12:46:08;-40.00;99.90
14485;DHT22;7328;50.812;4.422;2022-09-09T12:48:38;-40.00;99.90
14485;DHT22;7328;50.812;4.422;2022-09-09T12:51:16;-40.00;99.90
14485;DHT22;7328;50.812;4.422;2022-09-09T12:53:44;-40.00;99.90
14485;DHT22;7328;50.812;4.422;2022-09-09T12:56:19;-40.00;99.90
14485;DHT22;7328;50.812;4.422;2022-09-09T12:58:48;-40.00;99.90
14485;DHT22;7328;50.812;4.422;2022-09-09T13:01:28;-40.00;99.90
14485;DHT22;7328;50.812;4.422;2022-09-09T13:03:55;-40.00;99.90
14485;DHT22;7328;50.812;4.422;2022-09-09T13:06:23;-40.00;99.90
14485;DHT22;7328;50.812;4.422;2022-09-09T13:08:53;-40.00;99.90
14485;DHT22;7328;50.812;4.422;2022-09-09T13:11:35;-40.00;99.90
14485;DHT22;7328;50.812;4.422;2022-09-09T13:14:02;-40.00;99.90
14485;DHT22;7328;50.812;4.422;2022-09-09T13:16:30;-40.00;99.90
14485;DHT22;7328;50.812;4.422;2022-09-09T13:19:07;-40.00;99.90
14485;DHT22;7328;50.812;4.422;2022-09-09T13:21:38;-40.00;99.90
14485;DHT22;7328;50.812;4.422;2022-09-09T13:24:06;-40.00;99.90
14485;DHT22;7328;50.812;4.422;2022-09-09T13:26:54;-40.00;99.90
14485;DHT22;7328;50.812;4.422;2022-09-09T13:29:22;-40.00;99.90
14485;DHT22;7328;50.812;4.422;2022-09-09T13:31:48;-40.00;99.90
14485;DHT22;7328;50.812;4.422;2022-09-09T13:34:32;-40.00;99.90
14485;DHT22;7328;50.812;4.422;2022-09-09T13:37:17;-40.00;99.90
14485;DHT22;7328;50.812;4.422;2022-09-09T13:39:51;-40.00;99.90
14485;DHT22;7328;50.812;4.422;2022-09-09T13:42:26;-40.00;99.90
14485;DHT22;7328;50.812;4.422;2022-09-09T13:44:53;-40.00;99.90
14485;DHT22;7328;50.812;4.422;2022-09-09T13:49:54;-40.00;99.90
14485;DHT22;7328;50.812;4.422;2022-09-09T13:52:20;-40.00;99.90
14485;DHT22;7328;50.812;4.422;2022-09-09T13:54:49;-40.00;99.90
14485;DHT22;7328;50.812;4.422;2022-09-09T13:57:22;-40.00;99.90
14485;DHT22;7328;50.812;4.422;2022-09-09T13:59:49;-40.00;99.90
14485;DHT22;7328;50.812;4.422;2022-09-09T14:02:15;-40.00;99.90
14485;DHT22;7328;50.812;4.422;2022-09-09T14:04:42;-40.00;99.90
14485;DHT22;7328;50.812;4.422;2022-09-09T14:07:11;-40.00;99.90
14485;DHT22;7328;50.812;4.422;2022-09-09T14:09:37;-40.00;99.90
14485;DHT22;7328;50.812;4.422;2022-09-09T14:12:03;-40.00;99.90
14485;DHT22;7328;50.812;4.422;2022-09-09T14:14:30;-40.00;99.90
14485;DHT22;7328;50.812;4.422;2022-09-09T14:16:55;-40.00;99.90
14485;DHT22;7328;50.812;4.422;2022-09-09T14:19:21;-40.00;99.90
14485;DHT22;7328;50.812;4.422;2022-09-09T14:21:48;-40.00;99.90
14485;DHT22;7328;50.812;4.422;2022-09-09T14:24:14;-40.00;99.90
14485;DHT22;7328;50.812;4.422;2022-09-09T14:26:40;-40.00;99.90
14485;DHT22;7328;50.812;4.422;2022-09-09T14:29:06;-40.00;99.90
14485;DHT22;7328;50.812;4.422;2022-09-09T14:31:32;-40.00;99.90
14485;DHT22;7328;50.812;4.422;2022-09-09T14:33:58;-40.00;99.90
14485;DHT22;7328;50.812;4.422;2022-09-09T14:36:24;-40.00;99.90
14485;DHT22;7328;50.812;4.422;2022-09-09T14:38:50;-40.00;99.90
14485;DHT22;7328;50.812;4.422;2022-09-09T14:41:18;-40.00;99.90
14485;DHT22;7328;50.812;4.422;2022-09-09T14:43:45;-40.00;99.90
14485;DHT22;7328;50.812;4.422;2022-09-09T14:46:16;-40.00;99.90
14485;DHT22;7328;50.812;4.422;2022-09-09T14:48:43;-40.00;99.90
14485;DHT22;7328;50.812;4.422;2022-09-09T14:51:18;-40.00;99.90
14485;DHT22;7328;50.812;4.422;2022-09-09T14:53:45;-40.00;99.90
14485;DHT22;7328;50.812;4.422;2022-09-09T14:56:14;-40.00;99.90
14485;DHT22;7328;50.812;4.422;2022-09-09T14:58:40;-40.00;98.70
14485;DHT22;7328;50.812;4.422;2022-09-09T15:01:11;-40.00;97.50
14485;DHT22;7328;50.812;4.422;2022-09-09T15:03:42;-40.00;97.10
14485;DHT22;7328;50.812;4.422;2022-09-09T15:06:13;-40.00;95.70
14485;DHT22;7328;50.812;4.422;2022-09-09T15:08:41;-40.00;95.00
14485;DHT22;7328;50.812;4.422;2022-09-09T15:11:08;-40.00;97.30
14485;DHT22;7328;50.812;4.422;2022-09-09T15:13:34;-40.00;95.50
14485;DHT22;7328;50.812;4.422;2022-09-09T15:16:07;-40.00;95.10
14485;DHT22;7328;50.812;4.422;2022-09-09T15:18:33;-40.00;96.70
14485;DHT22;7328;50.812;4.422;2022-09-09T15:21:02;-40.00;95.00
14485;DHT22;7328;50.812;4.422;2022-09-09T15:23:34;-40.00;92.20
14485;DHT22;7328;50.812;4.422;2022-09-09T15:26:00;-40.00;92.80
14485;DHT22;7328;50.812;4.422;2022-09-09T15:28:26;-40.00;95.20
14485;DHT22;7328;50.812;4.422;2022-09-09T15:30:53;-40.00;98.10
14485;DHT22;7328;50.812;4.422;2022-09-09T15:33:20;-40.00;98.70
14485;DHT22;7328;50.812;4.422;2022-09-09T15:35:47;-40.00;99.80
14485;DHT22;7328;50.812;4.422;2022-09-09T15:38:13;-40.00;99.90
14485;DHT22;7328;50.812;4.422;2022-09-09T15:40:39;-40.00;99.90
14485;DHT22;7328;50.812;4.422;2022-09-09T15:43:06;-40.00;99.90
14485;DHT22;7328;50.812;4.422;2022-09-09T15:45:33;-40.00;99.90
14485;DHT22;7328;50.812;4.422;2022-09-09T15:48:00;-40.00;99.90
14485;DHT22;7328;50.812;4.422;2022-09-09T15:50:26;-40.00;99.90
14485;DHT22;7328;50.812;4.422;2022-09-09T15:52:52;-40.00;99.90
14485;DHT22;7328;50.812;4.422;2022-09-09T15:55:19;-40.00;99.90
14485;DHT22;7328;50.812;4.422;2022-09-09T15:57:50;-40.00;98.60
14485;DHT22;7328;50.812;4.422;2022-09-09T16:00:18;-40.00;95.60
14485;DHT22;7328;50.812;4.422;2022-09-09T16:02:48;-40.00;94.30
14485;DHT22;7328;50.812;4.422;2022-09-09T16:05:15;-40.00;92.40
14485;DHT22;7328;50.812;4.422;2022-09-09T16:07:41;-40.00;93.50
14485;DHT22;7328;50.812;4.422;2022-09-09T16:10:08;-40.00;94.10
14485;DHT22;7328;50.812;4.422;2022-09-09T16:12:34;-40.00;97.40
14485;DHT22;7328;50.812;4.422;2022-09-09T16:15:00;-40.00;99.10
14485;DHT22;7328;50.812;4.422;2022-09-09T16:17:25;-40.00;99.20
14485;DHT22;7328;50.812;4.422;2022-09-09T16:19:53;-40.00;99.90
14485;DHT22;7328;50.812;4.422;2022-09-09T16:22:20;-40.00;99.90
14485;DHT22;7328;50.812;4.422;2022-09-09T16:24:45;-40.00;99.90
14485;DHT22;7328;50.812;4.422;2022-09-09T16:27:11;-40.00;99.90
14485;DHT22;7328;50.812;4.422;2022-09-09T16:29:37;-40.00;99.90
14485;DHT22;7328;50.812;4.422;2022-09-09T16:32:03;-40.00;99.90
14485;DHT22;7328;50.812;4.422;2022-09-09T16:34:29;-40.00;99.90
14485;DHT22;7328;50.812;4.422;2022-09-09T16:36:55;-40.00;99.90
14485;DHT22;7328;50.812;4.422;2022-09-09T16:39:21;-40.00;99.90
14485;DHT22;7328;50.812;4.422;2022-09-09T16:41:48;-40.00;99.90
14485;DHT22;7328;50.812;4.422;2022-09-09T16:44:16;-40.00;99.90
14485;DHT22;7328;50.812;4.422;2022-09-09T16:46:44;-40.00;99.90
14485;DHT22;7328;50.812;4.422;2022-09-09T16:49:12;-40.00;99.90
14485;DHT22;7328;50.812;4.422;2022-09-09T16:51:43;-40.00;99.90
14485;DHT22;7328;50.812;4.422;2022-09-09T16:54:10;-40.00;99.90
14485;DHT22;7328;50.812;4.422;2022-09-09T16:56:38;-40.00;99.90
14485;DHT22;7328;50.812;4.422;2022-09-09T16:59:11;-40.00;99.90
14485;DHT22;7328;50.812;4.422;2022-09-09T17:01:39;-40.00;99.90
14485;DHT22;7328;50.812;4.422;2022-09-09T17:04:11;-40.00;99.90
14485;DHT22;7328;50.812;4.422;2022-09-09T17:06:38;-40.00;99.90
14485;DHT22;7328;50.812;4.422;2022-09-09T17:09:07;-40.00;99.90
14485;DHT22;7328;50.812;4.422;2022-09-09T17:11:33;-40.00;99.90
14485;DHT22;7328;50.812;4.422;2022-09-09T17:13:59;-40.00;99.90
14485;DHT22;7328;50.812;4.422;2022-09-09T17:16:28;-40.00;99.90
14485;DHT22;7328;50.812;4.422;2022-09-09T17:18:55;-40.00;99.90
14485;DHT22;7328;50.812;4.422;2022-09-09T17:21:23;-40.00;99.90
14485;DHT22;7328;50.812;4.422;2022-09-09T17:23:51;-40.00;99.90
14485;DHT22;7328;50.812;4.422;2022-09-09T17:26:19;-40.00;99.90
14485;DHT22;7328;50.812;4.422;2022-09-09T17:28:46;-40.00;99.90
14485;DHT22;7328;50.812;4.422;2022-09-09T17:31:16;-40.00;99.90
14485;DHT22;7328;50.812;4.422;2022-09-09T17:33:44;-40.00;99.90
14485;DHT22;7328;50.812;4.422;2022-09-09T17:36:16;-40.00;99.90
14485;DHT22;7328;50.812;4.422;2022-09-09T17:38:43;-40.00;99.90
14485;DHT22;7328;50.812;4.422;2022-09-09T17:41:23;-40.00;99.90
14485;DHT22;7328;50.812;4.422;2022-09-09T17:43:50;-40.00;99.90
14485;DHT22;7328;50.812;4.422;2022-09-09T17:46:22;-40.00;99.90
14485;DHT22;7328;50.812;4.422;2022-09-09T17:48:50;-40.00;99.90
14485;DHT22;7328;50.812;4.422;2022-09-09T17:51:18;-40.00;99.90
14485;DHT22;7328;50.812;4.422;2022-09-09T17:53:48;-40.00;99.90
14485;DHT22;7328;50.812;4.422;2022-09-09T17:56:17;-40.00;99.90
14485;DHT22;7328;50.812;4.422;2022-09-09T17:58:46;-40.00;99.90
14485;DHT22;7328;50.812;4.422;2022-09-09T18:01:14;-40.00;99.90
14485;DHT22;7328;50.812;4.422;2022-09-09T18:03:42;-40.00;99.90
14485;DHT22;7328;50.812;4.422;2022-09-09T18:06:11;-40.00;99.90
14485;DHT22;7328;50.812;4.422;2022-09-09T18:08:41;-40.00;99.90
14485;DHT22;7328;50.812;4.422;2022-09-09T18:11:07;-40.00;99.90